createdAt,value
2023-06-13T00:00:00.997Z,18.72
2023-06-13T00:02:29.540Z,18.83
2023-06-13T00:04:58.334Z,18.97
2023-06-13T00:07:26.004Z,18.64
2023-06-13T00:09:53.394Z,18.92
2023-06-13T00:12:21.296Z,18.71
2023-06-13T00:14:51.445Z,18.36
2023-06-13T00:17:26.169Z,19.01
2023-06-13T00:19:55.447Z,18.30
2023-06-13T00:22:25.730Z,18.12
2023-06-13T00:24:53.064Z,18.39
2023-06-13T00:27:20.272Z,18.80
2023-06-13T00:29:47.464Z,18.71
2023-06-13T00:32:14.692Z,18.43
2023-06-13T00:34:42.175Z,18.27
2023-06-13T00:37:10.960Z,18.19
2023-06-13T00:39:38.212Z,18.33
2023-06-13T00:42:07.520Z,18.36
2023-06-13T00:44:36.052Z,18.47
2023-06-13T00:47:05.454Z,18.20
2023-06-13T00:49:33.182Z,17.92
2023-06-13T00:52:06.006Z,17.62
2023-06-13T00:54:39.045Z,18.31
2023-06-13T00:57:08.484Z,17.79
2023-06-13T00:59:35.957Z,17.61
2023-06-13T01:02:04.910Z,18.15
2023-06-13T01:04:36.124Z,18.47
2023-06-13T01:07:06.921Z,18.26
2023-06-13T01:09:34.971Z,17.95
2023-06-13T01:12:30.092Z,17.61
2023-06-13T01:15:11.792Z,18.04
2023-06-13T01:17:58.201Z,17.78
2023-06-13T01:20:28.883Z,17.89
2023-06-13T01:23:15.512Z,17.36
2023-06-13T01:26:14.646Z,17.73
2023-06-13T01:28:46.210Z,17.08
2023-06-13T01:31:18.184Z,17.20
2023-06-13T01:33:47.523Z,17.25
2023-06-13T01:36:15.758Z,17.55
2023-06-13T01:38:44.125Z,17.53
2023-06-13T01:41:11.319Z,17.30
2023-06-13T01:43:38.539Z,17.27
2023-06-13T01:46:17.270Z,16.85
2023-06-13T01:49:22.374Z,17.11
2023-06-13T01:52:11.033Z,16.94
2023-06-13T01:54:46.850Z,16.68
2023-06-13T01:57:17.867Z,16.95
2023-06-13T01:59:45.967Z,16.92
2023-06-13T02:02:14.334Z,17.06
2023-06-13T02:04:44.963Z,16.80
2023-06-13T02:07:12.287Z,17.18
2023-06-13T02:09:39.478Z,16.89
2023-06-13T02:12:07.847Z,17.10
2023-06-13T02:14:35.097Z,16.78
2023-06-13T02:17:02.585Z,16.91
2023-06-13T02:19:31.111Z,16.63
2023-06-13T02:21:58.367Z,16.62
2023-06-13T02:24:26.334Z,16.80
2023-06-13T02:26:53.989Z,16.87
2023-06-13T02:29:21.795Z,16.43
2023-06-13T02:31:49.178Z,16.54
2023-06-13T02:34:16.498Z,16.55
2023-06-13T02:36:43.763Z,16.28
2023-06-13T02:39:12.650Z,15.91
2023-06-13T02:41:39.835Z,15.96
2023-06-13T02:44:07.045Z,16.36
2023-06-13T02:46:35.074Z,16.48
2023-06-13T02:49:02.474Z,15.98
2023-06-13T02:51:29.747Z,16.30
2023-06-13T02:53:57.920Z,16.04
2023-06-13T02:56:27.197Z,16.34
2023-06-13T02:58:54.365Z,15.45
2023-06-13T03:01:21.791Z,15.87
2023-06-13T03:03:49.172Z,16.13
2023-06-13T03:06:18.614Z,15.96
2023-06-13T03:08:46.200Z,15.78
2023-06-13T03:11:13.731Z,15.55
2023-06-13T03:13:41.096Z,15.58
2023-06-13T03:16:09.610Z,15.55
2023-06-13T03:18:37.957Z,15.75
2023-06-13T03:21:06.021Z,15.53
2023-06-13T03:23:33.350Z,15.89
2023-06-13T03:26:01.816Z,15.77
2023-06-13T03:28:29.046Z,15.52
2023-06-13T03:30:56.372Z,15.47
2023-06-13T03:33:23.966Z,15.58
2023-06-13T03:35:51.527Z,15.32
2023-06-13T03:38:20.261Z,15.77
2023-06-13T03:40:48.095Z,15.52
2023-06-13T03:43:16.232Z,15.60
2023-06-13T03:45:43.434Z,15.75
2023-06-13T03:48:10.700Z,15.75
2023-06-13T03:50:38.150Z,15.59
2023-06-13T03:53:05.365Z,15.82
2023-06-13T03:55:33.174Z,15.54
2023-06-13T03:58:00.370Z,15.81
2023-06-13T04:00:27.587Z,15.50
2023-06-13T04:02:54.891Z,15.46
2023-06-13T04:05:22.860Z,15.45
2023-06-13T04:07:50.066Z,15.52
2023-06-13T04:10:17.403Z,14.87
2023-06-13T04:12:44.820Z,15.62
2023-06-13T04:15:12.074Z,15.35
2023-06-13T04:17:39.256Z,15.69
2023-06-13T04:20:07.115Z,15.61
2023-06-13T04:22:34.304Z,15.81
2023-06-13T04:25:01.495Z,15.91
2023-06-13T04:27:29.909Z,15.85
2023-06-13T04:29:57.594Z,15.79
2023-06-13T04:32:28.158Z,16.01
2023-06-13T04:34:56.447Z,16.02
2023-06-13T04:37:26.782Z,15.58
2023-06-13T04:39:54.209Z,15.84
2023-06-13T04:42:28.449Z,16.01
2023-06-13T04:44:59.497Z,16.06
2023-06-13T04:47:46.676Z,16.02
2023-06-13T04:50:23.053Z,16.27
2023-06-13T04:52:54.143Z,16.21
2023-06-13T04:55:26.141Z,16.48
2023-06-13T04:57:53.410Z,16.28
2023-06-13T05:00:20.927Z,16.22
2023-06-13T05:02:48.700Z,16.13
2023-06-13T05:05:18.181Z,16.37
2023-06-13T05:07:45.837Z,16.72
2023-06-13T05:10:16.573Z,16.93
2023-06-13T05:12:45.733Z,16.46
2023-06-13T05:15:13.020Z,16.86
2023-06-13T05:17:40.269Z,16.65
2023-06-13T05:20:08.598Z,16.62
2023-06-13T05:22:35.813Z,17.13
2023-06-13T05:25:03.244Z,17.02
2023-06-13T05:27:30.442Z,17.02
2023-06-13T05:29:57.640Z,16.54
2023-06-13T05:32:24.859Z,16.98
2023-06-13T05:34:52.067Z,17.23
2023-06-13T05:37:19.746Z,17.35
2023-06-13T05:39:46.918Z,17.18
2023-06-13T05:42:14.192Z,17.31
2023-06-13T05:44:41.415Z,17.47
2023-06-13T05:47:08.914Z,17.55
2023-06-13T05:49:36.094Z,17.54
2023-06-13T05:52:03.383Z,17.62
2023-06-13T05:54:30.578Z,17.43
2023-06-13T05:56:57.986Z,17.82
2023-06-13T05:59:25.150Z,17.42
2023-06-13T06:01:52.443Z,17.07
2023-06-13T06:04:19.690Z,17.79
2023-06-13T06:06:46.931Z,17.82
2023-06-13T06:09:14.152Z,17.82
2023-06-13T06:11:41.459Z,18.04
2023-06-13T06:14:08.700Z,17.73
2023-06-13T06:16:35.864Z,17.89
2023-06-13T06:19:03.145Z,18.11
2023-06-13T06:21:30.375Z,18.53
2023-06-13T06:23:58.484Z,18.54
2023-06-13T06:26:25.894Z,18.59
2023-06-13T06:28:53.931Z,18.16
2023-06-13T06:31:22.425Z,18.63
2023-06-13T06:33:49.680Z,18.69
2023-06-13T06:36:17.155Z,18.44
2023-06-13T06:38:44.356Z,18.25
2023-06-13T06:41:11.576Z,18.58
2023-06-13T06:43:38.771Z,18.59
2023-06-13T06:46:07.607Z,18.39
2023-06-13T06:48:36.818Z,19.13
2023-06-13T06:51:04.259Z,19.09
2023-06-13T06:53:31.447Z,18.98
2023-06-13T06:55:58.621Z,19.21
2023-06-13T06:58:26.104Z,19.30
2023-06-13T07:00:53.320Z,19.03
2023-06-13T07:03:20.691Z,19.37
2023-06-13T07:05:47.863Z,19.31
2023-06-13T07:08:15.156Z,19.37
2023-06-13T07:10:42.384Z,19.52
2023-06-13T07:13:09.582Z,19.69
2023-06-13T07:15:37.011Z,19.77
2023-06-13T07:18:04.372Z,19.48
2023-06-13T07:20:31.592Z,19.66
2023-06-13T07:22:58.772Z,19.94
2023-06-13T07:25:26.173Z,19.82
2023-06-13T07:27:53.484Z,20.19
2023-06-13T07:30:20.681Z,20.26
2023-06-13T07:32:47.971Z,20.49
2023-06-13T07:35:17.426Z,20.83
2023-06-13T07:37:45.329Z,22.14
2023-06-13T07:40:13.060Z,22.68
2023-06-13T07:42:40.676Z,23.21
2023-06-13T07:45:08.308Z,23.07
2023-06-13T07:47:37.158Z,23.43
2023-06-13T07:50:04.875Z,24.24
2023-06-13T07:52:32.089Z,24.91
2023-06-13T07:54:59.566Z,25.79
2023-06-13T07:57:43.695Z,26.22
2023-06-13T08:00:18.950Z,26.15
2023-06-13T08:02:47.601Z,26.34
2023-06-13T08:05:16.811Z,27.08
2023-06-13T08:07:44.497Z,27.28
2023-06-13T08:10:11.952Z,27.80
2023-06-13T08:12:40.643Z,27.88
2023-06-13T08:15:08.556Z,28.09
2023-06-13T08:17:42.849Z,28.17
2023-06-13T08:20:11.381Z,28.49
2023-06-13T08:22:40.294Z,28.17
2023-06-13T08:25:09.614Z,28.22
2023-06-13T08:27:37.828Z,28.61
2023-06-13T08:30:06.490Z,29.15
2023-06-13T08:32:33.964Z,28.40
2023-06-13T08:35:01.993Z,28.36
2023-06-13T08:37:29.200Z,29.08
2023-06-13T08:39:56.449Z,29.99
2023-06-13T08:42:25.337Z,28.72
2023-06-13T08:44:53.044Z,29.63
2023-06-13T08:47:35.329Z,29.71
2023-06-13T08:50:03.948Z,29.87
2023-06-13T08:52:40.241Z,29.37
2023-06-13T08:55:34.590Z,29.91
2023-06-13T08:58:05.319Z,29.88
2023-06-13T09:00:36.445Z,30.37
2023-06-13T09:03:05.601Z,31.04
2023-06-13T09:05:34.065Z,30.61
2023-06-13T09:08:24.118Z,29.14
2023-06-13T09:10:52.396Z,30.77
2023-06-13T09:13:20.420Z,29.68
2023-06-13T09:15:47.701Z,30.06
2023-06-13T09:18:17.422Z,30.93
2023-06-13T09:20:44.875Z,30.93
2023-06-13T09:23:18.823Z,30.28
2023-06-13T09:25:49.091Z,29.69
2023-06-13T09:28:41.638Z,30.37
2023-06-13T09:31:11.507Z,31.35
2023-06-13T09:33:39.633Z,30.16
2023-06-13T09:36:08.302Z,30.38
2023-06-13T09:38:38.339Z,30.09
2023-06-13T09:41:06.151Z,30.77
2023-06-13T09:43:33.526Z,31.19
2023-06-13T09:46:02.474Z,30.35
2023-06-13T09:48:29.777Z,30.35
2023-06-13T09:50:57.178Z,30.65
2023-06-13T09:53:26.583Z,30.68
2023-06-13T09:55:53.957Z,30.48
2023-06-13T09:58:32.401Z,31.83
2023-06-13T10:01:01.403Z,31.07
2023-06-13T10:03:30.174Z,31.22
2023-06-13T10:06:02.077Z,31.53
2023-06-13T10:08:29.801Z,31.42
2023-06-13T10:11:01.385Z,31.22
2023-06-13T10:13:36.931Z,32.12
2023-06-13T10:16:07.580Z,31.09
2023-06-13T10:18:40.734Z,30.75
2023-06-13T10:21:13.092Z,29.79
2023-06-13T10:23:46.721Z,29.58
2023-06-13T10:26:26.573Z,29.48
2023-06-13T10:29:35.468Z,30.67
2023-06-13T10:32:46.173Z,29.52
2023-06-13T10:35:45.129Z,29.63
2023-06-13T10:38:49.670Z,30.91
2023-06-13T10:41:51.046Z,30.31
2023-06-13T10:44:47.694Z,30.97
2023-06-13T10:47:19.635Z,31.26
2023-06-13T10:49:50.144Z,31.02
2023-06-13T10:52:20.617Z,30.62
2023-06-13T10:54:57.489Z,30.14
2023-06-13T10:57:52.359Z,30.67
2023-06-13T11:00:30.877Z,30.29
2023-06-13T11:03:06.722Z,30.00
2023-06-13T11:05:47.728Z,30.56
2023-06-13T11:08:25.452Z,29.14
2023-06-13T11:10:54.360Z,30.43
2023-06-13T11:13:27.286Z,30.13
2023-06-13T11:15:57.375Z,30.70
2023-06-13T11:18:30.855Z,30.17
2023-06-13T11:21:00.184Z,29.89
2023-06-13T11:23:36.359Z,29.75
2023-06-13T11:26:04.926Z,30.15
2023-06-13T11:28:33.014Z,30.31
2023-06-13T11:31:06.566Z,29.73
2023-06-13T11:33:46.717Z,30.04
2023-06-13T11:36:18.326Z,29.37
2023-06-13T11:39:00.854Z,30.14
2023-06-13T11:41:28.777Z,30.41
2023-06-13T11:43:57.168Z,29.45
2023-06-13T11:46:24.576Z,29.34
2023-06-13T11:48:58.806Z,30.63
2023-06-13T11:51:31.828Z,29.68
2023-06-13T11:54:02.333Z,30.38
2023-06-13T11:56:35.459Z,30.20
2023-06-13T11:59:19.258Z,29.83
2023-06-13T12:01:53.710Z,29.63
2023-06-13T12:04:27.125Z,29.60
2023-06-13T12:06:55.327Z,30.10
2023-06-13T12:09:22.731Z,30.13
2023-06-13T12:11:52.723Z,30.11
2023-06-13T12:14:21.646Z,29.81
2023-06-13T12:16:53.285Z,29.87
2023-06-13T12:19:22.775Z,29.42
2023-06-13T12:21:52.287Z,29.33
2023-06-13T12:24:21.883Z,29.16
2023-06-13T12:26:49.642Z,29.99
2023-06-13T12:29:18.354Z,28.88
2023-06-13T12:31:48.679Z,28.15
2023-06-13T12:34:32.379Z,29.82
2023-06-13T12:37:09.194Z,30.11
2023-06-13T12:39:36.921Z,30.19
2023-06-13T12:42:08.912Z,29.98
2023-06-13T12:44:36.928Z,29.98
2023-06-13T12:47:06.971Z,29.53
2023-06-13T12:49:41.126Z,30.16
2023-06-13T12:52:16.191Z,29.87
2023-06-13T12:54:44.304Z,29.57
2023-06-13T12:57:14.226Z,29.69
2023-06-13T12:59:47.103Z,29.84
2023-06-13T13:02:18.641Z,29.59
2023-06-13T13:04:46.884Z,29.60
2023-06-13T13:07:14.323Z,30.18
2023-06-13T13:09:45.084Z,29.79
2023-06-13T13:12:15.118Z,29.85
2023-06-13T13:14:42.900Z,29.56
2023-06-13T13:17:10.205Z,29.99
2023-06-13T13:19:37.632Z,29.25
2023-06-13T13:22:05.454Z,29.80
2023-06-13T13:24:35.820Z,30.07
2023-06-13T13:27:04.242Z,29.68
2023-06-13T13:29:31.559Z,29.53
2023-06-13T13:31:58.886Z,29.89
2023-06-13T13:34:26.696Z,29.53
2023-06-13T13:36:55.271Z,29.87
2023-06-13T13:39:24.406Z,29.03
2023-06-13T13:41:53.027Z,29.29
2023-06-13T13:44:20.372Z,29.80
2023-06-13T13:46:47.622Z,29.72
2023-06-13T13:49:15.032Z,28.45
2023-06-13T13:51:44.168Z,28.06
2023-06-13T13:54:12.724Z,27.83
2023-06-13T13:56:40.059Z,28.01
2023-06-13T13:59:07.515Z,28.17
2023-06-13T14:01:34.817Z,28.77
2023-06-13T14:04:02.157Z,28.95
2023-06-13T14:06:29.431Z,29.27
2023-06-13T14:08:59.666Z,29.17
2023-06-13T14:11:29.721Z,28.88
2023-06-13T14:13:59.421Z,29.11
2023-06-13T14:16:28.765Z,28.84
2023-06-13T14:18:58.296Z,28.79
2023-06-13T14:21:26.985Z,29.00
2023-06-13T14:23:55.165Z,28.64
2023-06-13T14:26:23.680Z,28.56
2023-06-13T14:28:51.903Z,28.50
2023-06-13T14:31:19.215Z,28.57
2023-06-13T14:33:46.897Z,28.53
2023-06-13T14:36:14.174Z,28.20
2023-06-13T14:38:43.136Z,28.59
2023-06-13T14:41:12.003Z,28.23
2023-06-13T14:43:39.910Z,28.08
2023-06-13T14:46:09.904Z,28.12
2023-06-13T14:48:37.693Z,28.31
2023-06-13T14:51:04.957Z,27.95
2023-06-13T14:53:32.404Z,28.16
2023-06-13T14:55:59.632Z,28.34
2023-06-13T14:58:28.222Z,28.33
2023-06-13T15:00:55.542Z,28.14
2023-06-13T15:03:22.815Z,28.02
2023-06-13T15:05:50.915Z,27.95
2023-06-13T15:08:18.107Z,27.91
2023-06-13T15:10:45.481Z,28.06
2023-06-13T15:13:12.779Z,28.03
2023-06-13T15:15:40.033Z,28.05
2023-06-13T15:18:07.326Z,28.26
2023-06-13T15:20:35.143Z,27.92
2023-06-13T15:23:02.824Z,28.21
2023-06-13T15:25:30.440Z,27.97
2023-06-13T15:27:58.230Z,27.91
2023-06-13T15:30:25.463Z,28.24
2023-06-13T15:32:52.681Z,27.69
2023-06-13T15:35:19.972Z,27.91
2023-06-13T15:37:47.456Z,27.90
2023-06-13T15:40:15.686Z,27.70
2023-06-13T15:42:42.936Z,27.59
2023-06-13T15:45:10.224Z,27.88
2023-06-13T15:47:37.488Z,27.54
2023-06-13T15:50:05.021Z,27.61
2023-06-13T15:52:32.203Z,27.50
2023-06-13T15:54:59.762Z,27.51
2023-06-13T15:57:27.093Z,27.34
2023-06-13T15:59:54.270Z,27.37
2023-06-13T16:02:22.255Z,26.87
2023-06-13T16:04:49.600Z,27.25
2023-06-13T16:07:17.321Z,27.08
2023-06-13T16:09:46.541Z,26.81
2023-06-13T16:12:13.781Z,27.12
2023-06-13T16:14:40.975Z,26.83
2023-06-13T16:17:08.215Z,27.04
2023-06-13T16:19:35.388Z,26.93
2023-06-13T16:22:02.822Z,26.60
2023-06-13T16:24:30.107Z,26.83
2023-06-13T16:26:58.393Z,26.93
2023-06-13T16:29:25.811Z,26.81
2023-06-13T16:31:53.010Z,26.50
2023-06-13T16:34:20.695Z,26.70
2023-06-13T16:36:47.869Z,26.49
2023-06-13T16:39:15.323Z,26.49
2023-06-13T16:41:42.767Z,26.65
2023-06-13T16:44:09.969Z,26.34
2023-06-13T16:46:37.212Z,26.30
2023-06-13T16:49:04.518Z,26.26
2023-06-13T16:51:31.691Z,26.15
2023-06-13T16:53:58.927Z,26.13
2023-06-13T16:56:26.103Z,26.13
2023-06-13T16:58:53.310Z,26.14
2023-06-13T17:01:20.646Z,25.98
2023-06-13T17:03:48.044Z,25.54
2023-06-13T17:06:15.598Z,25.64
2023-06-13T17:08:42.778Z,25.41
2023-06-13T17:11:09.961Z,25.61
2023-06-13T17:13:37.232Z,25.68
2023-06-13T17:16:04.682Z,25.76
2023-06-13T17:18:32.131Z,25.70
2023-06-13T17:20:59.416Z,25.49
2023-06-13T17:23:26.585Z,25.35
2023-06-13T17:25:55.380Z,25.49
2023-06-13T17:28:23.873Z,24.93
2023-06-13T17:30:51.139Z,25.31
2023-06-13T17:33:18.445Z,25.25
2023-06-13T17:35:45.837Z,24.89
2023-06-13T17:38:13.862Z,24.89
2023-06-13T17:40:41.044Z,24.59
2023-06-13T17:43:08.305Z,24.32
2023-06-13T17:45:35.498Z,24.52
2023-06-13T17:48:04.250Z,24.46
2023-06-13T17:50:31.534Z,24.36
2023-06-13T17:52:58.753Z,24.44
2023-06-13T17:55:26.483Z,24.08
2023-06-13T17:57:54.766Z,23.91
2023-06-13T18:00:22.050Z,24.10
2023-06-13T18:02:49.325Z,23.87
2023-06-13T18:05:16.914Z,24.34
2023-06-13T18:07:44.385Z,24.27
2023-06-13T18:10:11.835Z,24.17
2023-06-13T18:12:39.684Z,24.24
2023-06-13T18:15:07.609Z,24.31
2023-06-13T18:17:34.838Z,24.39
2023-06-13T18:20:02.154Z,24.39
2023-06-13T18:22:29.503Z,24.17
2023-06-13T18:24:56.815Z,24.06
2023-06-13T18:27:24.265Z,24.28
2023-06-13T18:29:51.484Z,24.25
2023-06-13T18:32:18.696Z,23.84
2023-06-13T18:34:46.330Z,24.00
2023-06-13T18:37:13.515Z,24.01
2023-06-13T18:39:41.231Z,23.70
2023-06-13T18:42:08.794Z,23.45
2023-06-13T18:44:36.873Z,23.70
2023-06-13T18:47:04.398Z,23.52
2023-06-13T18:49:34.250Z,23.29
2023-06-13T18:52:05.557Z,23.29
2023-06-13T18:54:32.726Z,23.55
2023-06-13T18:57:00.065Z,23.44
2023-06-13T18:59:27.367Z,23.10
2023-06-13T19:01:55.372Z,23.04
2023-06-13T19:04:23.893Z,23.23
2023-06-13T19:06:51.415Z,22.82
2023-06-13T19:09:18.613Z,22.58
2023-06-13T19:11:46.337Z,22.82
2023-06-13T19:14:13.519Z,22.66
2023-06-13T19:16:40.856Z,22.61
2023-06-13T19:19:09.185Z,22.81
2023-06-13T19:21:36.962Z,22.53
2023-06-13T19:24:04.779Z,22.18
2023-06-13T19:26:34.186Z,22.27
2023-06-13T19:29:01.749Z,22.53
2023-06-13T19:31:29.081Z,22.28
2023-06-13T19:33:57.280Z,22.31
2023-06-13T19:36:24.492Z,21.91
2023-06-13T19:38:51.899Z,21.97
2023-06-13T19:41:19.609Z,22.36
2023-06-13T19:43:47.345Z,22.18
2023-06-13T19:46:14.549Z,21.97
2023-06-13T19:48:41.981Z,22.02
2023-06-13T19:51:18.651Z,21.72
2023-06-13T19:53:47.161Z,21.78
2023-06-13T19:56:16.917Z,21.59
2023-06-13T19:58:44.181Z,21.67
2023-06-13T20:01:11.519Z,21.83
2023-06-13T20:03:38.951Z,21.78
2023-06-13T20:06:06.447Z,21.74
2023-06-13T20:08:33.683Z,21.61
2023-06-13T20:11:00.904Z,21.54
2023-06-13T20:13:29.533Z,21.48
2023-06-13T20:15:57.384Z,21.52
2023-06-13T20:18:24.608Z,20.93
2023-06-13T20:20:52.264Z,21.18
2023-06-13T20:23:19.487Z,21.23
2023-06-13T20:25:47.112Z,21.15
2023-06-13T20:28:15.507Z,20.90
2023-06-13T20:30:44.505Z,21.04
2023-06-13T20:33:12.004Z,20.84
2023-06-13T20:35:39.270Z,20.72
2023-06-13T20:38:06.651Z,20.81
2023-06-13T20:40:33.848Z,20.75
2023-06-13T20:43:01.135Z,20.90
2023-06-13T20:45:29.934Z,20.72
2023-06-13T20:47:57.472Z,20.58
2023-06-13T20:50:25.179Z,20.86
2023-06-13T20:52:52.708Z,20.50
2023-06-13T20:55:19.868Z,20.19
2023-06-13T20:57:47.053Z,20.30
2023-06-13T21:00:22.220Z,20.31
2023-06-13T21:02:54.206Z,20.17
2023-06-13T21:05:26.501Z,20.36
2023-06-13T21:07:58.612Z,20.11
2023-06-13T21:10:29.270Z,19.96
2023-06-13T21:12:57.533Z,20.32
2023-06-13T21:15:26.339Z,20.15
2023-06-13T21:17:55.455Z,19.60
2023-06-13T21:20:27.469Z,19.52
2023-06-13T21:22:55.497Z,19.50
2023-06-13T21:25:24.335Z,19.66
2023-06-13T21:27:52.704Z,19.43
2023-06-13T21:30:20.693Z,19.33
2023-06-13T21:32:48.875Z,19.48
2023-06-13T21:35:20.061Z,19.37
2023-06-13T21:37:47.277Z,19.40
2023-06-13T21:40:15.409Z,19.60
2023-06-13T21:42:43.042Z,19.23
2023-06-13T21:45:13.447Z,19.30
2023-06-13T21:47:42.628Z,19.33
2023-06-13T21:50:10.094Z,19.21
2023-06-13T21:52:37.687Z,19.17
2023-06-13T21:55:10.570Z,19.36
2023-06-13T21:57:38.920Z,19.20
2023-06-13T22:00:15.707Z,19.16
2023-06-13T22:02:47.726Z,18.88
2023-06-13T22:05:15.923Z,18.86
2023-06-13T22:07:44.888Z,18.66
2023-06-13T22:10:13.986Z,18.80
2023-06-13T22:12:43.697Z,18.40
2023-06-13T22:15:11.189Z,18.69
2023-06-13T22:17:38.396Z,19.01
2023-06-13T22:20:11.712Z,18.77
2023-06-13T22:22:39.224Z,18.77
2023-06-13T22:25:08.636Z,18.05
2023-06-13T22:27:36.229Z,18.79
2023-06-13T22:30:04.025Z,18.75
2023-06-13T22:32:31.455Z,18.76
2023-06-13T22:34:58.990Z,18.67
2023-06-13T22:37:26.543Z,18.98
2023-06-13T22:39:54.684Z,18.58
2023-06-13T22:42:21.873Z,18.45
2023-06-13T22:44:49.331Z,18.34
2023-06-13T22:47:16.540Z,18.35
2023-06-13T22:49:44.065Z,18.19
2023-06-13T22:52:12.333Z,18.41
2023-06-13T22:54:39.624Z,18.36
2023-06-13T22:57:07.288Z,18.22
2023-06-13T22:59:34.466Z,18.47
2023-06-13T23:02:02.454Z,18.35
2023-06-13T23:04:34.975Z,18.21
2023-06-13T23:07:03.897Z,18.49
2023-06-13T23:09:32.453Z,18.58
2023-06-13T23:12:00.472Z,18.55
2023-06-13T23:14:28.920Z,18.26
2023-06-13T23:16:56.098Z,18.11
2023-06-13T23:19:26.255Z,18.30
2023-06-13T23:21:54.326Z,18.52
2023-06-13T23:24:22.273Z,18.38
2023-06-13T23:26:49.674Z,18.58
2023-06-13T23:29:16.859Z,18.31
2023-06-13T23:31:44.219Z,17.85
2023-06-13T23:34:11.546Z,18.06
2023-06-13T23:36:43.246Z,17.90
2023-06-13T23:39:31.630Z,18.01
2023-06-13T23:41:58.761Z,18.16
2023-06-13T23:44:26.007Z,18.02
2023-06-13T23:46:53.323Z,18.23
2023-06-13T23:49:20.565Z,18.04
2023-06-13T23:51:47.784Z,17.79
2023-06-13T23:54:15.655Z,18.33
2023-06-13T23:56:43.002Z,18.31
2023-06-13T23:59:10.352Z,18.36
